sensor_id;sensor_type;location;lat;lon;timestamp;pressure;altitude;pressure_sealevel;temperature;humidity
53719;BME280;39616;48.872;9.390;2022-11-15T00:02:23;98122.16;;;10.09;84.61
53719;BME280;39616;48.872;9.390;2022-11-15T00:04:53;98124.25;;;10.12;84.70
53719;BME280;39616;48.872;9.390;2022-11-15T00:07:23;98114.84;;;10.10;84.55
53719;BME280;39616;48.872;9.390;2022-11-15T00:09:53;98110.81;;;10.07;84.62
53719;BME280;39616;48.872;9.390;2022-11-15T00:12:24;98116.94;;;10.13;83.93
53719;BME280;39616;48.872;9.390;2022-11-15T00:14:54;98107.28;;;10.07;84.72
53719;BME280;39616;48.872;9.390;2022-11-15T00:17:24;98110.59;;;10.04;85.86
53719;BME280;39616;48.872;9.390;2022-11-15T00:19:55;98109.06;;;9.98;87.50
53719;BME280;39616;48.872;9.390;2022-11-15T00:22:31;98115.47;;;9.88;89.00
53719;BME280;39616;48.872;9.390;2022-11-15T00:25:02;98114.25;;;9.80;88.80
53719;BME280;39616;48.872;9.390;2022-11-15T00:27:33;98118.88;;;9.80;91.19
53719;BME280;39616;48.872;9.390;2022-11-15T00:30:04;98129.34;;;9.67;92.76
53719;BME280;39616;48.872;9.390;2022-11-15T00:32:34;98121.88;;;9.59;94.29
53719;BME280;39616;48.872;9.390;2022-11-15T00:35:05;98124.16;;;9.52;93.97
53719;BME280;39616;48.872;9.390;2022-11-15T00:37:35;98122.84;;;9.50;92.91
53719;BME280;39616;48.872;9.390;2022-11-15T00:40:06;98121.25;;;9.49;95.91
53719;BME280;39616;48.872;9.390;2022-11-15T00:42:36;98124.25;;;9.47;93.08
53719;BME280;39616;48.872;9.390;2022-11-15T00:45:07;98107.72;;;9.49;92.98
53719;BME280;39616;48.872;9.390;2022-11-15T00:47:38;98110.41;;;9.49;93.12
53719;BME280;39616;48.872;9.390;2022-11-15T00:50:08;98107.13;;;9.52;92.37
53719;BME280;39616;48.872;9.390;2022-11-15T00:52:39;98105.44;;;9.56;91.53
53719;BME280;39616;48.872;9.390;2022-11-15T00:55:16;98093.13;;;9.63;90.64
53719;BME280;39616;48.872;9.390;2022-11-15T00:57:47;98091.53;;;9.62;90.41
53719;BME280;39616;48.872;9.390;2022-11-15T01:00:17;98095.25;;;9.66;89.54
53719;BME280;39616;48.872;9.390;2022-11-15T01:02:47;98098.47;;;9.68;89.52
53719;BME280;39616;48.872;9.390;2022-11-15T01:05:18;98086.91;;;9.63;89.61
53719;BME280;39616;48.872;9.390;2022-11-15T01:07:52;98103.38;;;9.66;89.89
53719;BME280;39616;48.872;9.390;2022-11-15T01:10:23;98087.50;;;9.60;90.47
53719;BME280;39616;48.872;9.390;2022-11-15T01:12:53;98092.47;;;9.53;91.09
53719;BME280;39616;48.872;9.390;2022-11-15T01:15:24;98081.22;;;9.46;92.66
53719;BME280;39616;48.872;9.390;2022-11-15T01:17:54;98075.47;;;9.33;93.58
53719;BME280;39616;48.872;9.390;2022-11-15T01:20:25;98074.03;;;9.22;94.07
53719;BME280;39616;48.872;9.390;2022-11-15T01:22:55;98065.25;;;9.11;94.70
53719;BME280;39616;48.872;9.390;2022-11-15T01:25:25;98064.88;;;8.99;95.72
53719;BME280;39616;48.872;9.390;2022-11-15T01:27:55;98070.66;;;8.92;96.89
53719;BME280;39616;48.872;9.390;2022-11-15T01:30:26;98058.88;;;8.83;97.46
53719;BME280;39616;48.872;9.390;2022-11-15T01:32:56;98059.53;;;8.75;99.28
53719;BME280;39616;48.872;9.390;2022-11-15T01:35:26;98055.06;;;8.65;99.55
53719;BME280;39616;48.872;9.390;2022-11-15T01:37:57;98057.91;;;8.55;100.00
53719;BME280;39616;48.872;9.390;2022-11-15T01:40:27;98054.22;;;8.46;100.00
53719;BME280;39616;48.872;9.390;2022-11-15T01:42:57;98058.91;;;8.35;100.00
53719;BME280;39616;48.872;9.390;2022-11-15T01:45:27;98062.81;;;8.24;100.00
53719;BME280;39616;48.872;9.390;2022-11-15T01:47:58;98056.44;;;8.15;100.00
53719;BME280;39616;48.872;9.390;2022-11-15T01:50:31;98059.78;;;8.07;100.00
53719;BME280;39616;48.872;9.390;2022-11-15T01:53:02;98057.13;;;8.02;100.00
53719;BME280;39616;48.872;9.390;2022-11-15T01:55:33;98055.69;;;8.09;100.00
53719;BME280;39616;48.872;9.390;2022-11-15T01:58:05;98057.00;;;8.12;100.00
53719;BME280;39616;48.872;9.390;2022-11-15T02:00:36;98047.91;;;8.03;100.00
53719;BME280;39616;48.872;9.390;2022-11-15T02:03:07;98046.94;;;7.93;100.00
53719;BME280;39616;48.872;9.390;2022-11-15T02:05:37;98049.16;;;7.86;100.00
53719;BME280;39616;48.872;9.390;2022-11-15T02:08:08;98041.38;;;7.85;100.00
53719;BME280;39616;48.872;9.390;2022-11-15T02:10:49;98045.13;;;7.84;100.00
53719;BME280;39616;48.872;9.390;2022-11-15T02:13:20;98038.94;;;7.83;100.00
53719;BME280;39616;48.872;9.390;2022-11-15T02:22:07;98027.94;;;8.04;100.00
53719;BME280;39616;48.872;9.390;2022-11-15T02:25:01;98028.81;;;7.99;100.00
53719;BME280;39616;48.872;9.390;2022-11-15T02:36:08;98015.28;;;7.75;100.00
53719;BME280;39616;48.872;9.390;2022-11-15T02:38:50;98022.84;;;7.73;100.00
53719;BME280;39616;48.872;9.390;2022-11-15T02:41:46;98006.13;;;7.71;100.00
53719;BME280;39616;48.872;9.390;2022-11-15T02:44:25;98013.44;;;7.70;100.00
53719;BME280;39616;48.872;9.390;2022-11-15T02:47:00;98012.91;;;7.68;100.00
53719;BME280;39616;48.872;9.390;2022-11-15T02:49:47;98004.88;;;7.63;100.00
53719;BME280;39616;48.872;9.390;2022-11-15T02:52:20;97998.66;;;7.63;100.00
53719;BME280;39616;48.872;9.390;2022-11-15T02:54:55;97991.94;;;7.60;100.00
53719;BME280;39616;48.872;9.390;2022-11-15T02:57:51;97995.72;;;7.59;100.00
53719;BME280;39616;48.872;9.390;2022-11-15T03:00:22;97999.47;;;7.63;100.00
53719;BME280;39616;48.872;9.390;2022-11-15T03:03:23;97998.91;;;7.66;100.00
53719;BME280;39616;48.872;9.390;2022-11-15T03:12:23;97988.44;;;7.60;100.00
53719;BME280;39616;48.872;9.390;2022-11-15T03:15:53;97981.47;;;7.54;100.00
53719;BME280;39616;48.872;9.390;2022-11-15T03:18:20;97982.63;;;7.47;100.00
53719;BME280;39616;48.872;9.390;2022-11-15T03:20:52;97982.91;;;7.46;100.00
53719;BME280;39616;48.872;9.390;2022-11-15T03:23:24;97979.41;;;7.45;100.00
53719;BME280;39616;48.872;9.390;2022-11-15T03:25:58;97983.69;;;7.46;100.00
53719;BME280;39616;48.872;9.390;2022-11-15T03:28:34;97979.94;;;7.47;100.00
53719;BME280;39616;48.872;9.390;2022-11-15T03:31:07;97979.09;;;7.47;100.00
53719;BME280;39616;48.872;9.390;2022-11-15T03:33:58;97966.22;;;7.44;100.00
53719;BME280;39616;48.872;9.390;2022-11-15T03:36:33;97979.47;;;7.35;100.00
53719;BME280;39616;48.872;9.390;2022-11-15T03:39:07;97970.13;;;7.28;100.00
53719;BME280;39616;48.872;9.390;2022-11-15T03:41:47;97967.75;;;7.21;100.00
53719;BME280;39616;48.872;9.390;2022-11-15T03:44:47;97962.97;;;7.13;100.00
53719;BME280;39616;48.872;9.390;2022-11-15T03:47:29;97960.34;;;7.02;100.00
53719;BME280;39616;48.872;9.390;2022-11-15T03:50:13;97964.44;;;6.95;100.00
53719;BME280;39616;48.872;9.390;2022-11-15T03:52:45;97960.22;;;6.84;100.00
53719;BME280;39616;48.872;9.390;2022-11-15T03:55:18;97959.72;;;6.76;100.00
53719;BME280;39616;48.872;9.390;2022-11-15T03:57:53;97958.97;;;6.71;100.00
53719;BME280;39616;48.872;9.390;2022-11-15T04:00:24;97958.19;;;6.65;100.00
53719;BME280;39616;48.872;9.390;2022-11-15T04:02:55;97948.53;;;6.59;100.00
53719;BME280;39616;48.872;9.390;2022-11-15T04:05:25;97945.56;;;6.61;100.00
53719;BME280;39616;48.872;9.390;2022-11-15T04:07:56;97951.25;;;6.54;100.00
53719;BME280;39616;48.872;9.390;2022-11-15T04:10:26;97938.88;;;6.48;100.00
53719;BME280;39616;48.872;9.390;2022-11-15T04:12:56;97949.97;;;6.46;100.00
53719;BME280;39616;48.872;9.390;2022-11-15T04:15:27;97947.00;;;6.43;100.00
53719;BME280;39616;48.872;9.390;2022-11-15T04:17:58;97944.88;;;6.40;100.00
53719;BME280;39616;48.872;9.390;2022-11-15T04:20:30;97947.56;;;6.40;100.00
53719;BME280;39616;48.872;9.390;2022-11-15T04:23:21;97956.19;;;6.37;100.00
53719;BME280;39616;48.872;9.390;2022-11-15T04:26:18;97947.31;;;6.36;100.00
53719;BME280;39616;48.872;9.390;2022-11-15T04:28:49;97949.75;;;6.33;100.00
53719;BME280;39616;48.872;9.390;2022-11-15T04:31:38;97943.06;;;6.30;100.00
53719;BME280;39616;48.872;9.390;2022-11-15T04:34:09;97942.00;;;6.26;100.00
53719;BME280;39616;48.872;9.390;2022-11-15T04:36:39;97937.19;;;6.18;100.00
53719;BME280;39616;48.872;9.390;2022-11-15T04:39:28;97939.38;;;6.11;100.00
53719;BME280;39616;48.872;9.390;2022-11-15T04:41:58;97934.00;;;6.05;100.00
53719;BME280;39616;48.872;9.390;2022-11-15T04:44:28;97938.34;;;6.01;100.00
53719;BME280;39616;48.872;9.390;2022-11-15T04:46:59;97931.38;;;5.95;100.00
53719;BME280;39616;48.872;9.390;2022-11-15T04:49:29;97943.22;;;5.94;100.00
53719;BME280;39616;48.872;9.390;2022-11-15T04:51:59;97931.38;;;5.90;100.00
53719;BME280;39616;48.872;9.390;2022-11-15T04:54:30;97936.19;;;5.88;100.00
53719;BME280;39616;48.872;9.390;2022-11-15T04:57:00;97936.50;;;5.87;100.00
53719;BME280;39616;48.872;9.390;2022-11-15T04:59:30;97925.47;;;5.83;100.00
53719;BME280;39616;48.872;9.390;2022-11-15T05:02:01;97917.41;;;5.83;100.00
53719;BME280;39616;48.872;9.390;2022-11-15T05:04:33;97926.00;;;5.80;100.00
53719;BME280;39616;48.872;9.390;2022-11-15T05:07:03;97933.53;;;5.78;100.00
53719;BME280;39616;48.872;9.390;2022-11-15T05:09:34;97923.06;;;5.76;100.00
53719;BME280;39616;48.872;9.390;2022-11-15T05:12:04;97920.66;;;5.75;100.00
53719;BME280;39616;48.872;9.390;2022-11-15T05:14:34;97918.22;;;5.73;100.00
53719;BME280;39616;48.872;9.390;2022-11-15T05:17:05;97909.66;;;5.71;100.00
53719;BME280;39616;48.872;9.390;2022-11-15T05:19:35;97909.66;;;5.66;100.00
53719;BME280;39616;48.872;9.390;2022-11-15T05:22:05;97913.97;;;5.67;100.00
53719;BME280;39616;48.872;9.390;2022-11-15T05:24:36;97915.03;;;5.66;100.00
53719;BME280;39616;48.872;9.390;2022-11-15T05:27:06;97914.22;;;5.71;100.00
53719;BME280;39616;48.872;9.390;2022-11-15T05:29:36;97915.00;;;5.76;100.00
53719;BME280;39616;48.872;9.390;2022-11-15T05:32:08;97914.72;;;5.83;100.00
53719;BME280;39616;48.872;9.390;2022-11-15T05:34:39;97906.34;;;5.85;100.00
53719;BME280;39616;48.872;9.390;2022-11-15T05:37:10;97912.53;;;5.90;100.00
53719;BME280;39616;48.872;9.390;2022-11-15T05:39:40;97905.00;;;5.92;100.00
53719;BME280;39616;48.872;9.390;2022-11-15T05:42:15;97909.28;;;5.98;100.00
53719;BME280;39616;48.872;9.390;2022-11-15T05:44:48;97910.34;;;6.08;100.00
53719;BME280;39616;48.872;9.390;2022-11-15T05:47:23;97899.00;;;6.11;100.00
53719;BME280;39616;48.872;9.390;2022-11-15T05:49:55;97895.53;;;6.05;100.00
53719;BME280;39616;48.872;9.390;2022-11-15T05:52:30;97897.44;;;5.99;100.00
53719;BME280;39616;48.872;9.390;2022-11-15T05:55:03;97892.09;;;5.94;100.00
53719;BME280;39616;48.872;9.390;2022-11-15T05:57:35;97892.88;;;5.90;100.00
53719;BME280;39616;48.872;9.390;2022-11-15T06:00:06;97888.56;;;5.89;100.00
53719;BME280;39616;48.872;9.390;2022-11-15T06:02:38;97882.38;;;5.88;100.00
53719;BME280;39616;48.872;9.390;2022-11-15T06:05:08;97885.06;;;5.88;100.00
53719;BME280;39616;48.872;9.390;2022-11-15T06:07:38;97885.06;;;5.88;100.00
53719;BME280;39616;48.872;9.390;2022-11-15T06:10:08;97885.88;;;5.89;100.00
53719;BME280;39616;48.872;9.390;2022-11-15T06:12:39;97896.38;;;5.90;100.00
53719;BME280;39616;48.872;9.390;2022-11-15T06:15:09;97892.59;;;5.91;100.00
53719;BME280;39616;48.872;9.390;2022-11-15T06:17:39;97895.03;;;5.98;100.00
53719;BME280;39616;48.872;9.390;2022-11-15T06:20:10;97898.78;;;6.02;100.00
53719;BME280;39616;48.872;9.390;2022-11-15T06:22:40;97902.25;;;6.08;100.00
53719;BME280;39616;48.872;9.390;2022-11-15T06:25:11;97895.50;;;6.10;100.00
53719;BME280;39616;48.872;9.390;2022-11-15T06:27:41;97899.78;;;6.11;100.00
53719;BME280;39616;48.872;9.390;2022-11-15T06:30:12;97902.72;;;6.15;100.00
53719;BME280;39616;48.872;9.390;2022-11-15T06:32:42;97907.31;;;6.14;100.00
53719;BME280;39616;48.872;9.390;2022-11-15T06:35:13;97907.56;;;6.18;100.00
53719;BME280;39616;48.872;9.390;2022-11-15T06:37:44;97896.50;;;6.24;100.00
53719;BME280;39616;48.872;9.390;2022-11-15T06:40:14;97892.97;;;6.29;100.00
53719;BME280;39616;48.872;9.390;2022-11-15T06:42:45;97892.94;;;6.34;100.00
53719;BME280;39616;48.872;9.390;2022-11-15T06:45:15;97887.25;;;6.36;100.00
53719;BME280;39616;48.872;9.390;2022-11-15T06:47:46;97893.44;;;6.41;100.00
53719;BME280;39616;48.872;9.390;2022-11-15T06:50:16;97895.34;;;6.41;100.00
53719;BME280;39616;48.872;9.390;2022-11-15T06:52:47;97897.72;;;6.42;100.00
53719;BME280;39616;48.872;9.390;2022-11-15T06:55:17;97897.19;;;6.45;100.00
53719;BME280;39616;48.872;9.390;2022-11-15T06:57:49;97889.06;;;6.50;100.00
53719;BME280;39616;48.872;9.390;2022-11-15T07:00:20;97900.84;;;6.60;100.00
53719;BME280;39616;48.872;9.390;2022-11-15T07:02:51;97897.56;;;6.68;100.00
53719;BME280;39616;48.872;9.390;2022-11-15T07:05:21;97892.59;;;6.80;100.00
53719;BME280;39616;48.872;9.390;2022-11-15T07:07:53;97903.53;;;6.94;100.00
53719;BME280;39616;48.872;9.390;2022-11-15T07:10:24;97903.13;;;7.11;100.00
53719;BME280;39616;48.872;9.390;2022-11-15T07:12:55;97902.13;;;7.31;100.00
53719;BME280;39616;48.872;9.390;2022-11-15T07:15:26;97903.19;;;7.59;100.00
53719;BME280;39616;48.872;9.390;2022-11-15T07:18:00;97900.69;;;7.86;100.00
53719;BME280;39616;48.872;9.390;2022-11-15T07:20:30;97896.13;;;8.06;100.00
53719;BME280;39616;48.872;9.390;2022-11-15T07:23:05;97905.91;;;8.20;100.00
53719;BME280;39616;48.872;9.390;2022-11-15T07:25:35;97901.75;;;8.28;100.00
53719;BME280;39616;48.872;9.390;2022-11-15T07:28:05;97902.28;;;8.30;100.00
53719;BME280;39616;48.872;9.390;2022-11-15T07:30:36;97900.50;;;8.20;100.00
53719;BME280;39616;48.872;9.390;2022-11-15T07:33:06;97903.66;;;8.28;100.00
53719;BME280;39616;48.872;9.390;2022-11-15T07:35:36;97906.34;;;8.09;100.00
53719;BME280;39616;48.872;9.390;2022-11-15T07:38:07;97911.03;;;7.79;100.00
53719;BME280;39616;48.872;9.390;2022-11-15T07:40:37;97909.59;;;7.87;100.00
53719;BME280;39616;48.872;9.390;2022-11-15T07:43:08;97915.00;;;7.87;100.00
53719;BME280;39616;48.872;9.390;2022-11-15T07:45:43;97915.22;;;7.90;100.00
53719;BME280;39616;48.872;9.390;2022-11-15T07:48:14;97916.66;;;8.07;100.00
53719;BME280;39616;48.872;9.390;2022-11-15T07:50:44;97909.72;;;8.19;100.00
53719;BME280;39616;48.872;9.390;2022-11-15T07:53:14;97913.31;;;8.34;100.00
53719;BME280;39616;48.872;9.390;2022-11-15T07:55:45;97915.94;;;8.95;100.00
53719;BME280;39616;48.872;9.390;2022-11-15T07:58:15;97910.81;;;9.40;95.16
53719;BME280;39616;48.872;9.390;2022-11-15T08:00:46;97903.31;;;9.79;91.63
53719;BME280;39616;48.872;9.390;2022-11-15T08:03:16;97905.66;;;10.49;88.19
53719;BME280;39616;48.872;9.390;2022-11-15T08:05:50;97892.34;;;10.75;84.43
53719;BME280;39616;48.872;9.390;2022-11-15T08:08:21;97896.16;;;10.38;86.86
53719;BME280;39616;48.872;9.390;2022-11-15T08:10:51;97883.88;;;10.77;86.40
53719;BME280;39616;48.872;9.390;2022-11-15T08:13:22;97884.06;;;10.58;86.37
53719;BME280;39616;48.872;9.390;2022-11-15T08:16:00;97886.63;;;10.63;86.83
53719;BME280;39616;48.872;9.390;2022-11-15T08:18:31;97887.06;;;10.56;87.40
53719;BME280;39616;48.872;9.390;2022-11-15T08:21:02;97881.38;;;10.44;89.17
53719;BME280;39616;48.872;9.390;2022-11-15T08:23:32;97879.78;;;10.43;87.41
53719;BME280;39616;48.872;9.390;2022-11-15T08:26:03;97882.97;;;10.45;87.93
53719;BME280;39616;48.872;9.390;2022-11-15T08:28:34;97878.78;;;10.39;87.32
53719;BME280;39616;48.872;9.390;2022-11-15T08:31:04;97877.81;;;10.35;88.19
53719;BME280;39616;48.872;9.390;2022-11-15T08:33:35;97876.16;;;10.48;88.49
53719;BME280;39616;48.872;9.390;2022-11-15T08:36:05;97866.38;;;10.83;86.99
53719;BME280;39616;48.872;9.390;2022-11-15T08:38:36;97874.28;;;11.24;83.77
53719;BME280;39616;48.872;9.390;2022-11-15T08:41:06;97868.13;;;11.41;81.43
53719;BME280;39616;48.872;9.390;2022-11-15T08:43:39;97862.69;;;11.41;81.11
53719;BME280;39616;48.872;9.390;2022-11-15T08:46:13;97866.22;;;11.42;81.67
53719;BME280;39616;48.872;9.390;2022-11-15T08:48:43;97857.91;;;11.38;81.26
53719;BME280;39616;48.872;9.390;2022-11-15T08:51:14;97856.59;;;11.35;81.71
53719;BME280;39616;48.872;9.390;2022-11-15T08:53:44;97853.09;;;11.35;81.56
53719;BME280;39616;48.872;9.390;2022-11-15T08:56:15;97855.19;;;11.38;82.49
53719;BME280;39616;48.872;9.390;2022-11-15T08:58:45;97848.13;;;11.28;81.64
53719;BME280;39616;48.872;9.390;2022-11-15T09:01:19;97852.22;;;11.57;81.29
53719;BME280;39616;48.872;9.390;2022-11-15T09:03:49;97842.00;;;12.20;80.33
53719;BME280;39616;48.872;9.390;2022-11-15T09:06:20;97838.97;;;12.39;77.92
53719;BME280;39616;48.872;9.390;2022-11-15T09:08:50;97838.78;;;12.70;76.92
53719;BME280;39616;48.872;9.390;2022-11-15T09:11:20;97837.81;;;12.92;75.94
53719;BME280;39616;48.872;9.390;2022-11-15T09:13:52;97833.50;;;12.82;76.39
53719;BME280;39616;48.872;9.390;2022-11-15T09:16:22;97825.50;;;12.77;76.00
53719;BME280;39616;48.872;9.390;2022-11-15T09:18:53;97836.09;;;12.61;75.98
53719;BME280;39616;48.872;9.390;2022-11-15T09:21:24;97833.84;;;12.54;76.42
53719;BME280;39616;48.872;9.390;2022-11-15T09:23:55;97831.94;;;12.64;78.52
53719;BME280;39616;48.872;9.390;2022-11-15T09:26:25;97832.53;;;12.87;77.22
53719;BME280;39616;48.872;9.390;2022-11-15T09:28:56;97829.47;;;12.88;73.87
53719;BME280;39616;48.872;9.390;2022-11-15T09:31:26;97829.47;;;12.97;73.88
53719;BME280;39616;48.872;9.390;2022-11-15T09:33:57;97823.88;;;12.85;73.92
53719;BME280;39616;48.872;9.390;2022-11-15T09:36:27;97825.34;;;12.82;73.73
53719;BME280;39616;48.872;9.390;2022-11-15T09:38:58;97825.03;;;12.84;73.52
53719;BME280;39616;48.872;9.390;2022-11-15T09:44:18;97825.59;;;13.24;71.32
53719;BME280;39616;48.872;9.390;2022-11-15T09:47:20;97817.22;;;13.38;70.87
53719;BME280;39616;48.872;9.390;2022-11-15T09:49:58;97806.25;;;13.55;71.75
53719;BME280;39616;48.872;9.390;2022-11-15T09:52:29;97811.00;;;13.67;71.89
53719;BME280;39616;48.872;9.390;2022-11-15T09:54:59;97809.78;;;13.76;72.19
53719;BME280;39616;48.872;9.390;2022-11-15T09:57:41;97807.66;;;14.54;70.18
53719;BME280;39616;48.872;9.390;2022-11-15T10:00:29;97801.91;;;15.01;68.65
53719;BME280;39616;48.872;9.390;2022-11-15T10:05:45;97804.03;;;15.53;63.34
53719;BME280;39616;48.872;9.390;2022-11-15T10:10:56;97796.13;;;16.12;61.50
53719;BME280;39616;48.872;9.390;2022-11-15T10:13:35;97797.28;;;16.11;61.30
53719;BME280;39616;48.872;9.390;2022-11-15T10:16:28;97794.56;;;15.38;62.04
53719;BME280;39616;48.872;9.390;2022-11-15T10:19:11;97784.00;;;15.85;61.13
53719;BME280;39616;48.872;9.390;2022-11-15T10:21:59;97790.69;;;15.63;60.87
53719;BME280;39616;48.872;9.390;2022-11-15T10:24:39;97793.78;;;15.37;61.29
53719;BME280;39616;48.872;9.390;2022-11-15T10:27:15;97792.97;;;15.25;63.13
53719;BME280;39616;48.872;9.390;2022-11-15T10:29:48;97783.91;;;14.54;68.01
53719;BME280;39616;48.872;9.390;2022-11-15T10:32:20;97781.50;;;14.32;68.50
53719;BME280;39616;48.872;9.390;2022-11-15T10:34:50;97772.00;;;14.38;72.03
53719;BME280;39616;48.872;9.390;2022-11-15T10:37:29;97776.78;;;14.20;70.27
53719;BME280;39616;48.872;9.390;2022-11-15T10:40:18;97770.94;;;14.09;69.89
53719;BME280;39616;48.872;9.390;2022-11-15T10:45:45;97763.84;;;13.96;70.29
53719;BME280;39616;48.872;9.390;2022-11-15T10:48:21;97753.91;;;14.12;70.29
53719;BME280;39616;48.872;9.390;2022-11-15T10:50:53;97753.25;;;14.15;69.48
53719;BME280;39616;48.872;9.390;2022-11-15T10:53:31;97752.00;;;14.13;70.31
53719;BME280;39616;48.872;9.390;2022-11-15T10:56:06;97744.72;;;14.17;69.58
53719;BME280;39616;48.872;9.390;2022-11-15T10:58:41;97740.50;;;14.07;69.52
53719;BME280;39616;48.872;9.390;2022-11-15T11:03:44;97738.03;;;14.14;68.69
53719;BME280;39616;48.872;9.390;2022-11-15T11:06:17;97732.38;;;13.98;69.90
53719;BME280;39616;48.872;9.390;2022-11-15T11:09:01;97744.06;;;13.99;71.08
53719;BME280;39616;48.872;9.390;2022-11-15T11:11:48;97738.25;;;13.88;70.76
53719;BME280;39616;48.872;9.390;2022-11-15T11:14:30;97733.97;;;13.78;70.99
53719;BME280;39616;48.872;9.390;2022-11-15T11:17:19;97727.47;;;13.92;71.68
53719;BME280;39616;48.872;9.390;2022-11-15T11:22:27;97728.69;;;14.03;69.64
53719;BME280;39616;48.872;9.390;2022-11-15T11:25:11;97731.06;;;14.05;69.05
53719;BME280;39616;48.872;9.390;2022-11-15T11:30:40;97733.50;;;14.18;70.82
53719;BME280;39616;48.872;9.390;2022-11-15T11:33:17;97722.34;;;14.11;72.26
53719;BME280;39616;48.872;9.390;2022-11-15T11:36:37;97727.41;;;14.00;73.75
53719;BME280;39616;48.872;9.390;2022-11-15T11:38:56;97724.47;;;13.85;74.70
53719;BME280;39616;48.872;9.390;2022-11-15T11:41:57;97715.09;;;13.94;74.45
53719;BME280;39616;48.872;9.390;2022-11-15T11:47:39;97712.50;;;14.19;72.62
53719;BME280;39616;48.872;9.390;2022-11-15T11:55:43;97702.25;;;14.49;71.83
53719;BME280;39616;48.872;9.390;2022-11-15T11:58:34;97693.94;;;14.45;71.91
53719;BME280;39616;48.872;9.390;2022-11-15T12:01:26;97692.91;;;14.38;72.56
53719;BME280;39616;48.872;9.390;2022-11-15T12:04:16;97688.59;;;14.37;71.15
53719;BME280;39616;48.872;9.390;2022-11-15T12:06:55;97676.66;;;14.41;71.33
53719;BME280;39616;48.872;9.390;2022-11-15T12:09:35;97675.88;;;14.41;71.51
53719;BME280;39616;48.872;9.390;2022-11-15T12:12:17;97672.13;;;14.45;71.97
53719;BME280;39616;48.872;9.390;2022-11-15T12:17:27;97663.78;;;14.63;67.99
53719;BME280;39616;48.872;9.390;2022-11-15T12:20:05;97660.25;;;14.74;67.28
53719;BME280;39616;48.872;9.390;2022-11-15T12:22:55;97650.25;;;14.91;68.48
53719;BME280;39616;48.872;9.390;2022-11-15T12:26:09;97653.22;;;15.10;65.60
53719;BME280;39616;48.872;9.390;2022-11-15T12:28:58;97652.56;;;15.13;65.31
53719;BME280;39616;48.872;9.390;2022-11-15T12:34:36;97657.19;;;15.13;64.76
53719;BME280;39616;48.872;9.390;2022-11-15T12:40:20;97652.44;;;15.10;63.46
53719;BME280;39616;48.872;9.390;2022-11-15T12:45:39;97654.59;;;14.92;64.75
53719;BME280;39616;48.872;9.390;2022-11-15T12:58:56;97641.41;;;14.69;66.19
53719;BME280;39616;48.872;9.390;2022-11-15T13:07:04;97635.19;;;14.48;68.16
53719;BME280;39616;48.872;9.390;2022-11-15T13:14:40;97624.09;;;14.53;68.02
53719;BME280;39616;48.872;9.390;2022-11-15T13:22:48;97610.06;;;14.42;68.55
53719;BME280;39616;48.872;9.390;2022-11-15T13:28:19;97603.53;;;14.56;65.28
53719;BME280;39616;48.872;9.390;2022-11-15T13:30:57;97598.28;;;14.50;65.59
53719;BME280;39616;48.872;9.390;2022-11-15T13:33:34;97591.75;;;14.43;66.85
53719;BME280;39616;48.872;9.390;2022-11-15T13:36:32;97591.50;;;14.36;67.35
53719;BME280;39616;48.872;9.390;2022-11-15T13:39:14;97588.91;;;14.39;66.55
53719;BME280;39616;48.872;9.390;2022-11-15T13:41:53;97582.66;;;14.39;66.18
53719;BME280;39616;48.872;9.390;2022-11-15T13:44:29;97580.59;;;14.36;66.36
53719;BME280;39616;48.872;9.390;2022-11-15T13:47:20;97568.78;;;14.32;66.78
53719;BME280;39616;48.872;9.390;2022-11-15T13:49:50;97567.19;;;14.31;66.56
53719;BME280;39616;48.872;9.390;2022-11-15T13:52:20;97567.88;;;14.27;67.41
53719;BME280;39616;48.872;9.390;2022-11-15T13:54:58;97569.00;;;14.14;68.17
53719;BME280;39616;48.872;9.390;2022-11-15T13:57:38;97563.63;;;14.06;69.00
53719;BME280;39616;48.872;9.390;2022-11-15T14:00:34;97563.19;;;14.04;68.82
53719;BME280;39616;48.872;9.390;2022-11-15T14:03:21;97558.06;;;14.02;69.30
53719;BME280;39616;48.872;9.390;2022-11-15T14:06:05;97552.03;;;13.96;69.55
53719;BME280;39616;48.872;9.390;2022-11-15T14:08:58;97552.34;;;13.95;69.63
53719;BME280;39616;48.872;9.390;2022-11-15T14:11:29;97547.47;;;13.88;69.94
53719;BME280;39616;48.872;9.390;2022-11-15T14:16:38;97542.44;;;13.78;70.88
53719;BME280;39616;48.872;9.390;2022-11-15T14:22:19;97531.16;;;13.67;72.05
53719;BME280;39616;48.872;9.390;2022-11-15T14:25:18;97526.25;;;13.61;71.66
53719;BME280;39616;48.872;9.390;2022-11-15T14:28:09;97523.88;;;13.59;71.06
53719;BME280;39616;48.872;9.390;2022-11-15T14:30:41;97521.69;;;13.52;72.00
53719;BME280;39616;48.872;9.390;2022-11-15T14:33:33;97507.41;;;13.56;69.29
53719;BME280;39616;48.872;9.390;2022-11-15T14:36:06;97511.31;;;13.67;70.61
53719;BME280;39616;48.872;9.390;2022-11-15T14:38:41;97508.53;;;13.54;70.79
53719;BME280;39616;48.872;9.390;2022-11-15T14:43:50;97503.59;;;13.36;74.81
53719;BME280;39616;48.872;9.390;2022-11-15T14:46:20;97511.69;;;13.23;75.82
53719;BME280;39616;48.872;9.390;2022-11-15T14:48:50;97505.34;;;13.11;77.55
53719;BME280;39616;48.872;9.390;2022-11-15T14:51:21;97501.91;;;13.01;78.03
53719;BME280;39616;48.872;9.390;2022-11-15T14:53:51;97501.06;;;12.89;83.93
53719;BME280;39616;48.872;9.390;2022-11-15T14:56:22;97498.47;;;12.71;88.07
53719;BME280;39616;48.872;9.390;2022-11-15T14:58:52;97499.03;;;12.56;96.71
53719;BME280;39616;48.872;9.390;2022-11-15T15:01:25;97491.75;;;12.39;93.96
53719;BME280;39616;48.872;9.390;2022-11-15T15:03:56;97484.59;;;12.35;91.20
53719;BME280;39616;48.872;9.390;2022-11-15T15:06:28;97473.44;;;12.27;93.75
53719;BME280;39616;48.872;9.390;2022-11-15T15:08:59;97470.78;;;12.19;97.66
53719;BME280;39616;48.872;9.390;2022-11-15T15:11:31;97471.44;;;12.07;99.73
53719;BME280;39616;48.872;9.390;2022-11-15T15:14:01;97470.66;;;12.06;95.16
53719;BME280;39616;48.872;9.390;2022-11-15T15:16:32;97461.91;;;12.01;99.62
53719;BME280;39616;48.872;9.390;2022-11-15T15:19:02;97458.41;;;11.92;100.00
53719;BME280;39616;48.872;9.390;2022-11-15T15:21:32;97454.28;;;11.85;100.00